Time;durP1;ratioP1;P1;durP2;ratioP2;P2;SDS_P1;SDS_P2;PMS_P1;PMS_P2;Temp;Humidity;BMP_temperature;BMP_pressure;BME280_temperature;BME280_humidity;BME280_pressure;Samples;Min_cycle;Max_cycle;Signal;HPM_P1;HPM_P2
2021/01/19 00:02:49;;;;;;;149.15;49.40;;;;;;;-6.38;100.00;99278.97;4275856;82;44689;-76
2021/01/19 00:08:52;;;;;;;145.07;49.83;;;;;;;-6.32;100.00;99280.30;4239059;82;43962;-72
2021/01/19 00:14:54;;;;;;;136.97;49.75;;;;;;;-6.16;100.00;99265.56;4198455;83;44313;-73
2021/01/19 00:20:57;;;;;;;141.53;52.10;;;;;;;-6.28;100.00;99250.34;4204459;82;43610;-72
2021/01/19 00:26:59;;;;;;;157.88;51.80;;;;;;;-6.00;100.00;99248.65;4229462;82;43901;-73
2021/01/19 00:33:01;;;;;;;151.78;52.03;;;;;;;-5.90;100.00;99242.56;4216295;82;43943;-73
2021/01/19 00:39:03;;;;;;;169.13;58.15;;;;;;;-5.97;100.00;99251.87;4220998;82;44333;-72
2021/01/19 00:45:08;;;;;;;135.93;48.83;;;;;;;-6.08;100.00;99242.73;4209455;82;44431;-74
2021/01/19 00:51:10;;;;;;;136.83;46.50;;;;;;;-5.90;100.00;99240.44;4220119;82;28636;-74
2021/01/19 00:57:13;;;;;;;122.30;44.38;;;;;;;-5.91;100.00;99255.80;4207079;83;43968;-74
2021/01/19 01:03:16;;;;;;;125.45;41.68;;;;;;;-5.68;100.00;99241.36;4209349;82;43951;-73
2021/01/19 01:09:19;;;;;;;117.25;40.55;;;;;;;-5.77;100.00;99231.14;4233139;82;44689;-73
2021/01/19 01:15:34;;;;;;;127.10;42.78;;;;;;;-5.64;100.00;99218.73;4259393;82;44236;-73
2021/01/19 01:21:38;;;;;;;121.55;45.00;;;;;;;-5.71;100.00;99214.11;4256878;82;43960;-73
2021/01/19 01:27:42;;;;;;;120.62;44.77;;;;;;;-5.85;100.00;99213.88;4261109;82;43929;-74
2021/01/19 01:33:45;;;;;;;131.37;47.48;;;;;;;-5.92;100.00;99203.88;4261360;82;44325;-74
2021/01/19 01:39:47;;;;;;;137.50;48.30;;;;;;;-5.52;100.00;99191.19;4261350;82;44426;-73
2021/01/19 01:45:49;;;;;;;147.50;50.55;;;;;;;-5.61;100.00;99187.53;4251705;82;44606;-73
2021/01/19 01:51:52;;;;;;;140.25;51.35;;;;;;;-5.38;100.00;99181.72;4261563;82;43923;-73
2021/01/19 01:57:56;;;;;;;143.43;52.15;;;;;;;-5.34;100.00;99168.73;4253935;82;44250;-75
2021/01/19 02:03:58;;;;;;;150.22;53.13;;;;;;;-5.47;100.00;99154.95;4223481;82;44243;-74
2021/01/19 02:10:41;;;;;;;151.35;57.48;;;;;;;-5.62;100.00;99164.42;4229045;82;43880;-75
2021/01/19 02:17:09;;;;;;;148.87;52.85;;;;;;;-5.66;100.00;99159.08;4199000;84;44251;-75
2021/01/19 02:23:26;;;;;;;138.72;49.05;;;;;;;-5.56;100.00;99145.24;4220602;82;44190;-75
2021/01/19 02:29:39;;;;;;;139.65;50.25;;;;;;;-5.33;100.00;99140.25;4221597;82;43528;-73
2021/01/19 02:35:50;;;;;;;132.15;47.90;;;;;;;-5.48;100.00;99143.65;4213557;82;44288;-75
2021/01/19 02:41:54;;;;;;;125.75;47.95;;;;;;;-5.41;100.00;99133.49;4210305;82;44624;-74
2021/01/19 02:47:56;;;;;;;127.05;46.55;;;;;;;-5.36;100.00;99126.56;4200858;82;44169;-74
2021/01/19 02:54:00;;;;;;;123.22;43.78;;;;;;;-5.40;100.00;99123.86;4200140;82;43975;-74
2021/01/19 03:00:16;;;;;;;114.57;44.88;;;;;;;-5.32;100.00;99121.41;4230363;82;44660;-75
2021/01/19 03:06:20;;;;;;;119.08;45.92;;;;;;;-5.24;100.00;99117.68;4220794;82;43956;-75
2021/01/19 03:12:24;;;;;;;123.55;43.17;;;;;;;-5.22;100.00;99114.94;4206441;82;44433;-75
2021/01/19 03:18:27;;;;;;;109.37;41.50;;;;;;;-5.24;100.00;99106.38;4200512;82;44293;-75
2021/01/19 03:24:29;;;;;;;108.75;39.88;;;;;;;-5.22;100.00;99098.72;4209939;82;44269;-75
2021/01/19 03:30:31;;;;;;;104.07;38.58;;;;;;;-5.16;100.00;99100.49;4205202;82;43919;-75
2021/01/19 03:36:33;;;;;;;101.33;35.55;;;;;;;-5.13;100.00;99090.58;4195572;82;43665;-75
2021/01/19 03:42:36;;;;;;;101.62;37.80;;;;;;;-4.75;100.00;99090.92;4214728;82;43982;-75
2021/01/19 03:48:38;;;;;;;95.47;37.13;;;;;;;-4.79;100.00;99094.74;4198058;82;44454;-75
2021/01/19 03:54:40;;;;;;;101.50;37.70;;;;;;;-4.53;100.00;99082.51;4195589;82;43962;-74
2021/01/19 04:00:43;;;;;;;102.35;38.05;;;;;;;-4.75;100.00;99084.36;4221573;82;43502;-76
2021/01/19 04:06:45;;;;;;;108.90;38.58;;;;;;;-4.67;100.00;99079.76;4208091;82;44305;-76
2021/01/19 04:12:47;;;;;;;95.90;38.02;;;;;;;-4.81;100.00;99075.69;4220352;82;44448;-74
2021/01/19 04:18:49;;;;;;;105.85;40.00;;;;;;;-4.81;100.00;99077.84;4213331;82;44273;-75
2021/01/19 04:24:52;;;;;;;101.53;38.80;;;;;;;-4.53;100.00;99072.86;4188904;82;43943;-75
2021/01/19 04:30:53;;;;;;;109.60;41.63;;;;;;;-4.58;100.00;99074.19;4186950;84;44418;-75
2021/01/19 04:36:55;;;;;;;111.95;41.05;;;;;;;-4.58;100.00;99072.88;4194388;83;44419;-75
2021/01/19 04:42:57;;;;;;;116.12;43.35;;;;;;;-4.59;100.00;99073.38;4195018;84;44609;-75
2021/01/19 04:49:03;;;;;;;123.38;44.08;;;;;;;-4.42;100.00;99074.53;4225603;83;43977;-76
2021/01/19 04:55:24;;;;;;;117.67;43.70;;;;;;;-4.31;100.00;99069.67;4210648;83;28590;-75
2021/01/19 05:01:39;;;;;;;120.67;45.98;;;;;;;-4.39;100.00;99048.50;4199258;83;43922;-74
2021/01/19 05:07:52;;;;;;;136.77;49.27;;;;;;;-4.15;100.00;99065.68;4204744;84;43673;-74
2021/01/19 05:14:00;;;;;;;134.00;50.12;;;;;;;-4.02;100.00;99065.43;4223204;84;44277;-74
2021/01/19 05:20:05;;;;;;;126.87;46.80;;;;;;;-4.19;100.00;99065.11;4192245;84;44214;-75
2021/01/19 05:26:09;;;;;;;127.93;48.00;;;;;;;-3.90;100.00;99058.23;4259462;82;28636;-75
2021/01/19 05:32:11;;;;;;;121.10;47.65;;;;;;;-3.98;100.00;99066.80;4274225;82;43972;-75
2021/01/19 05:38:13;;;;;;;118.75;45.73;;;;;;;-3.87;100.00;99065.86;4258153;83;43960;-74
2021/01/19 05:44:30;;;;;;;124.97;44.63;;;;;;;-3.81;100.00;99069.23;4269429;82;44442;-75
2021/01/19 05:50:35;;;;;;;114.22;42.75;;;;;;;-3.78;100.00;99065.05;4257895;82;44611;-76
2021/01/19 05:56:38;;;;;;;101.83;40.97;;;;;;;-3.47;100.00;99064.89;4268238;82;28597;-76
2021/01/19 06:02:43;;;;;;;68.33;28.57;;;;;;;-3.22;100.00;99062.16;4243332;82;44118;-76
2021/01/19 06:08:47;;;;;;;57.03;23.45;;;;;;;-2.97;100.00;99061.19;4263296;82;44095;-75
2021/01/19 06:14:53;;;;;;;43.75;19.30;;;;;;;-2.73;100.00;99059.04;4213644;82;43776;-75
2021/01/19 06:20:55;;;;;;;30.95;14.80;;;;;;;-2.52;100.00;99056.16;4218228;82;44101;-74
2021/01/19 06:26:57;;;;;;;29.92;13.62;;;;;;;-2.27;100.00;99044.61;4223593;82;43748;-74
2021/01/19 06:33:01;;;;;;;35.43;14.83;;;;;;;-2.04;100.00;99038.91;4204848;82;44143;-75
2021/01/19 06:39:04;;;;;;;30.23;13.03;;;;;;;-1.91;100.00;99042.50;4213975;82;43425;-75
2021/01/19 06:45:12;;;;;;;29.07;14.70;;;;;;;-1.82;100.00;99049.52;4210239;82;43391;-75
2021/01/19 06:51:16;;;;;;;23.30;11.80;;;;;;;-1.64;100.00;99044.70;4203772;82;42900;-75
2021/01/19 06:57:48;;;;;;;27.22;12.75;;;;;;;-1.59;100.00;99047.22;4187675;82;43303;-75
2021/01/19 07:03:59;;;;;;;26.05;10.95;;;;;;;-1.47;100.00;99045.19;4217382;82;42950;-76
2021/01/19 07:10:08;;;;;;;23.40;10.95;;;;;;;-1.33;100.00;99048.24;4208035;83;44427;-75
2021/01/19 07:16:13;;;;;;;23.77;11.33;;;;;;;-1.29;100.00;99046.47;4114953;86;43648;-75
2021/01/19 07:22:42;;;;;;;;;;;;;;;-1.19;100.00;99048.18;4235567;84;28559;-75
2021/01/19 07:28:45;;;;;;;20.82;9.48;;;;;;;-1.08;100.00;99052.39;4218772;83;43991;-75
2021/01/19 07:34:48;;;;;;;18.17;9.13;;;;;;;-1.05;100.00;99054.70;4139673;84;43985;-75
2021/01/19 07:40:50;;;;;;;20.43;9.05;;;;;;;-0.93;100.00;99052.64;4133211;84;43991;-75
2021/01/19 07:46:52;;;;;;;18.77;9.60;;;;;;;-0.79;100.00;99057.81;4241641;82;43953;-74
2021/01/19 07:52:56;;;;;;;20.43;9.38;;;;;;;-0.72;100.00;99063.65;4229693;82;43941;-75
2021/01/19 07:59:02;;;;;;;17.48;9.28;;;;;;;-0.67;100.00;99061.02;4234312;84;43962;-74
2021/01/19 08:05:08;;;;;;;;;;;;;;;-0.58;100.00;99045.55;4236750;84;28644;-75
2021/01/19 08:11:20;;;;;;;19.67;8.73;;;;;;;-0.35;100.00;99045.80;4220703;82;43989;-75
2021/01/19 08:17:32;;;;;;;19.23;9.38;;;;;;;-0.20;100.00;99046.50;4143748;84;43932;-76
2021/01/19 08:23:35;;;;;;;17.48;8.75;;;;;;;-0.11;100.00;99034.96;4132339;84;43957;-73
2021/01/19 08:29:38;;;;;;;21.97;10.63;;;;;;;-0.01;100.00;99021.10;4212778;82;44509;-74
2021/01/19 08:35:40;;;;;;;19.27;9.90;;;;;;;0.19;100.00;99019.48;4208850;82;44475;-76
2021/01/19 08:41:46;;;;;;;20.92;10.38;;;;;;;0.30;100.00;99033.37;4195339;82;44511;-74
2021/01/19 08:47:56;;;;;;;21.00;9.60;;;;;;;0.42;100.00;99032.05;4184872;82;43907;-74
2021/01/19 08:53:59;;;;;;;20.52;9.50;;;;;;;0.49;100.00;99034.37;4214659;82;43937;-73
2021/01/19 09:00:01;;;;;;;20.02;9.15;;;;;;;0.56;100.00;99035.84;4232827;82;44004;-73
2021/01/19 09:06:08;;;;;;;17.77;8.88;;;;;;;0.76;100.00;99034.99;4206956;82;43986;-73
2021/01/19 09:12:20;;;;;;;20.12;9.45;;;;;;;0.78;100.00;99042.77;4217060;81;43940;-73
2021/01/19 09:18:24;;;;;;;20.77;10.58;;;;;;;0.85;100.00;99045.58;4259676;82;28573;-72
2021/01/19 09:24:26;;;;;;;20.40;10.00;;;;;;;0.76;100.00;99048.22;4235188;83;44455;-72
2021/01/19 09:30:34;;;;;;;19.55;9.23;;;;;;;0.97;100.00;99049.03;4244422;83;43951;-71
2021/01/19 09:36:36;;;;;;;21.07;10.32;;;;;;;0.99;100.00;99058.14;4237740;83;28685;-72
2021/01/19 09:42:40;;;;;;;20.90;10.20;;;;;;;1.21;100.00;99057.10;4152952;84;28562;-71
2021/01/19 09:48:46;;;;;;;20.27;10.68;;;;;;;1.29;100.00;99049.11;4139353;85;44449;-74
2021/01/19 09:54:48;;;;;;;22.00;9.77;;;;;;;1.67;100.00;99040.53;4136778;85;28602;-73
2021/01/19 10:00:51;;;;;;;20.92;9.73;;;;;;;1.72;100.00;99038.66;4123748;85;28591;-75
2021/01/19 10:07:08;;;;;;;23.60;10.63;;;;;;;1.75;100.00;99039.14;4135313;85;28590;-73
2021/01/19 10:13:10;;;;;;;18.55;9.33;;;;;;;1.50;100.00;99031.80;4110861;85;28608;-73
2021/01/19 10:19:23;;;;;;;21.17;10.00;;;;;;;1.45;100.00;99027.54;4183726;83;28617;-73
2021/01/19 10:25:37;;;;;;;20.55;9.18;;;;;;;1.43;100.00;99026.37;4165633;84;28663;-73
2021/01/19 10:31:45;;;;;;;15.70;8.13;;;;;;;1.33;100.00;99026.59;4149558;84;28589;-75
2021/01/19 10:37:53;;;;;;;17.02;8.20;;;;;;;1.35;100.00;99011.83;4184346;83;28576;-74
2021/01/19 10:43:56;;;;;;;14.55;7.65;;;;;;;1.49;100.00;98997.04;4174647;83;28560;-73
2021/01/19 10:50:10;;;;;;;14.10;8.00;;;;;;;1.47;100.00;98985.30;4189597;83;28632;-74
2021/01/19 10:56:14;;;;;;;14.80;6.97;;;;;;;1.55;100.00;98972.50;4149939;84;28581;-77
2021/01/19 11:02:18;;;;;;;14.68;7.40;;;;;;;1.80;100.00;98970.54;4176897;82;28589;-76
2021/01/19 11:08:21;;;;;;;15.88;8.00;;;;;;;1.89;100.00;98969.16;4196505;82;28596;-75
2021/01/19 11:14:23;;;;;;;17.15;8.05;;;;;;;1.83;100.00;98965.39;4235757;82;28601;-75
2021/01/19 11:20:27;;;;;;;19.50;8.60;;;;;;;1.87;100.00;98964.52;4279235;82;28669;-77
2021/01/19 11:26:30;;;;;;;12.75;6.83;;;;;;;1.92;100.00;98959.52;4278068;82;28578;-75
2021/01/19 11:32:32;;;;;;;17.27;8.28;;;;;;;1.93;100.00;98939.95;4261413;82;28583;-75
2021/01/19 11:38:34;;;;;;;13.30;6.42;;;;;;;2.24;100.00;98932.41;4274493;82;28574;-76
2021/01/19 11:44:37;;;;;;;11.70;6.33;;;;;;;2.28;100.00;98931.03;4260681;82;28658;-76
2021/01/19 11:50:40;;;;;;;10.30;5.42;;;;;;;2.33;100.00;98922.54;4263121;82;28601;-77
2021/01/19 11:56:52;;;;;;;10.88;5.47;;;;;;;2.31;100.00;98916.59;4269237;82;28600;-76
2021/01/19 12:02:54;;;;;;;15.03;6.47;;;;;;;2.18;100.00;98914.06;4262815;82;28583;-75
2021/01/19 12:08:56;;;;;;;12.65;7.20;;;;;;;2.28;100.00;98904.50;4277813;82;28585;-75
2021/01/19 12:14:58;;;;;;;12.47;6.87;;;;;;;2.23;100.00;98897.09;4286120;81;28652;-75
2021/01/19 12:21:02;;;;;;;12.80;6.80;;;;;;;2.38;100.00;98892.32;4312484;81;28672;-73
2021/01/19 12:27:05;;;;;;;13.08;7.00;;;;;;;2.29;100.00;98886.77;4297338;81;28597;-75
2021/01/19 12:33:07;;;;;;;12.33;7.22;;;;;;;2.63;100.00;98879.61;4303278;81;28574;-75
2021/01/19 12:39:09;;;;;;;16.77;7.87;;;;;;;2.67;100.00;98876.09;4252204;83;28541;-75
2021/01/19 12:45:14;;;;;;;16.97;8.10;;;;;;;2.86;100.00;98861.91;4162574;83;28656;-74
2021/01/19 12:51:17;;;;;;;19.07;8.60;;;;;;;3.11;100.00;98845.16;4243104;83;28627;-75
2021/01/19 12:57:20;;;;;;;16.35;8.05;;;;;;;3.16;100.00;98848.08;4281771;83;28592;-73
2021/01/19 13:03:22;;;;;;;15.60;8.05;;;;;;;3.27;100.00;98833.47;4230697;83;28629;-73
2021/01/19 13:09:26;;;;;;;17.05;8.43;;;;;;;3.26;100.00;98830.50;4295457;81;28596;-73
2021/01/19 13:15:28;;;;;;;16.52;8.85;;;;;;;3.24;100.00;98831.20;4286280;82;28556;-74
2021/01/19 13:21:30;;;;;;;14.93;7.62;;;;;;;3.16;100.00;98829.48;4246953;82;28969;-76
2021/01/19 13:27:33;;;;;;;15.58;7.17;;;;;;;3.12;100.00;98821.55;4258048;82;28636;-74
2021/01/19 13:33:37;;;;;;;16.23;8.10;;;;;;;2.96;100.00;98819.14;4250160;82;28644;-75
2021/01/19 13:39:40;;;;;;;13.68;7.37;;;;;;;3.10;100.00;98830.75;4264840;82;28598;-75
2021/01/19 13:45:42;;;;;;;17.17;8.38;;;;;;;3.12;100.00;98826.87;4266414;82;28602;-76
2021/01/19 13:51:45;;;;;;;17.40;7.42;;;;;;;2.87;100.00;98813.94;4248190;82;28578;-76
2021/01/19 13:57:47;;;;;;;15.28;7.50;;;;;;;2.69;100.00;98811.69;4244864;82;28593;-74
2021/01/19 14:03:49;;;;;;;14.70;7.12;;;;;;;2.53;100.00;98810.06;4254539;82;28606;-74
2021/01/19 14:09:52;;;;;;;13.60;7.12;;;;;;;2.41;100.00;98808.36;4265684;82;28605;-74
2021/01/19 14:15:59;;;;;;;16.32;7.72;;;;;;;2.39;100.00;98796.28;4244069;82;28571;-75
2021/01/19 14:22:03;;;;;;;15.72;7.60;;;;;;;2.41;100.00;98798.27;4232346;82;28600;-76
2021/01/19 14:28:07;;;;;;;13.75;7.42;;;;;;;2.26;100.00;98792.44;4231608;82;28648;-76
2021/01/19 14:34:15;;;;;;;12.30;6.90;;;;;;;1.90;100.00;98788.67;4247968;82;28535;-75
2021/01/19 14:40:18;;;;;;;15.00;7.50;;;;;;;1.84;100.00;98784.59;4232073;82;28610;-75
2021/01/19 14:46:24;;;;;;;17.95;7.85;;;;;;;1.75;100.00;98775.39;4235196;82;28604;-74
2021/01/19 14:52:26;;;;;;;15.18;7.22;;;;;;;1.65;100.00;98768.20;4230851;82;28550;-73
2021/01/19 14:58:28;;;;;;;13.93;6.87;;;;;;;1.67;100.00;98756.94;4188942;84;28560;-73
2021/01/19 15:04:30;;;;;;;13.05;6.28;;;;;;;1.60;100.00;98763.43;4187556;84;28584;-76
2021/01/19 15:10:32;;;;;;;10.40;5.75;;;;;;;1.71;100.00;98746.28;4230856;82;28624;-76
2021/01/19 15:16:39;;;;;;;13.70;6.37;;;;;;;1.57;100.00;98745.77;4259344;81;28606;-74
2021/01/19 15:22:42;;;;;;;13.80;7.33;;;;;;;1.53;100.00;98736.83;4289740;82;43929;-75
2021/01/19 15:28:44;;;;;;;10.25;5.67;;;;;;;1.50;100.00;98734.55;4292697;81;28648;-74
2021/01/19 15:34:47;;;;;;;11.18;6.40;;;;;;;1.53;100.00;98738.67;4218022;83;28560;-74
2021/01/19 15:40:49;;;;;;;11.93;6.37;;;;;;;1.29;100.00;98724.62;4263003;83;28611;-76
2021/01/19 15:46:52;;;;;;;11.40;6.35;;;;;;;1.21;100.00;98728.17;4210523;83;28553;-75
2021/01/19 15:52:55;;;;;;;13.38;6.22;;;;;;;1.00;100.00;98724.03;4281359;83;43942;-74
2021/01/19 15:59:04;;;;;;;10.50;5.85;;;;;;;0.89;100.00;98713.37;4205535;83;28607;-73
2021/01/19 16:05:07;;;;;;;13.93;6.65;;;;;;;0.69;100.00;98701.41;4216969;83;28574;-74
2021/01/19 16:11:12;;;;;;;14.20;6.80;;;;;;;0.69;100.00;98690.81;4204984;83;28545;-74
2021/01/19 16:17:16;;;;;;;18.25;8.10;;;;;;;0.56;100.00;98680.00;4141298;83;28597;-74
2021/01/19 16:23:19;;;;;;;15.15;7.67;;;;;;;0.63;100.00;98688.89;4217635;84;28610;-74
2021/01/19 16:29:21;;;;;;;15.48;7.55;;;;;;;0.44;100.00;98670.81;4216845;83;28610;-73
2021/01/19 16:35:23;;;;;;;14.87;7.40;;;;;;;0.27;100.00;98651.91;4213325;83;43933;-73
2021/01/19 16:41:25;;;;;;;15.90;8.10;;;;;;;0.16;100.00;98631.14;4185252;82;28609;-75
2021/01/19 16:47:29;;;;;;;22.52;9.83;;;;;;;0.26;100.00;98618.52;4224444;83;44204;-74
2021/01/19 16:53:41;;;;;;;19.80;9.38;;;;;;;0.43;100.00;98621.56;4222528;82;28601;-74
2021/01/19 17:00:16;;;;;;;20.23;9.85;;;;;;;0.52;100.00;98594.86;4356331;78;86965;-73
2021/01/19 17:06:20;;;;;;;23.80;11.35;;;;;;;0.46;100.00;98584.17;4281648;81;28695;-73
2021/01/19 17:12:23;;;;;;;22.90;11.30;;;;;;;0.65;100.00;98583.70;4240598;81;43663;-74
2021/01/19 17:18:27;;;;;;;21.25;10.72;;;;;;;0.68;100.00;98570.09;4292812;81;28592;-74
2021/01/19 17:24:30;;;;;;;21.20;11.05;;;;;;;0.67;100.00;98555.22;4278933;81;28637;-74
2021/01/19 17:30:32;;;;;;;21.62;10.75;;;;;;;0.64;100.00;98545.50;4278323;81;28573;-74
2021/01/19 17:36:35;;;;;;;20.37;10.68;;;;;;;0.65;100.00;98542.68;4280086;81;28573;-73
2021/01/19 17:42:45;;;;;;;21.23;11.05;;;;;;;0.75;100.00;98533.16;4279536;81;28617;-73
2021/01/19 17:48:47;;;;;;;23.95;11.20;;;;;;;0.65;100.00;98530.78;4282831;81;28561;-73
2021/01/19 17:54:51;;;;;;;27.62;12.93;;;;;;;0.67;100.00;98524.80;4278045;82;28718;-73
2021/01/19 18:00:54;;;;;;;25.60;12.55;;;;;;;0.61;100.00;98519.41;4233892;82;28595;-74
2021/01/19 18:06:56;;;;;;;23.70;12.75;;;;;;;0.55;100.00;98511.69;4246482;82;43787;-74
2021/01/19 18:12:59;;;;;;;23.38;11.55;;;;;;;0.41;100.00;98514.09;4275825;82;28567;-77
2021/01/19 18:19:15;;;;;;;25.97;11.68;;;;;;;0.43;100.00;98509.95;4248589;82;28596;-74
2021/01/19 18:25:17;;;;;;;24.07;11.57;;;;;;;0.41;100.00;98511.97;4232924;82;28622;-74
2021/01/19 18:31:21;;;;;;;22.62;11.90;;;;;;;0.32;100.00;98509.89;4253208;82;28597;-73
2021/01/19 18:37:23;;;;;;;26.35;12.15;;;;;;;0.27;100.00;98514.87;4247799;82;28545;-74
2021/01/19 18:43:25;;;;;;;24.82;12.10;;;;;;;0.45;100.00;98509.80;4228775;82;43775;-73
2021/01/19 18:49:28;;;;;;;25.10;12.75;;;;;;;0.41;100.00;98506.16;4238820;82;42939;-72
2021/01/19 18:55:31;;;;;;;27.77;12.33;;;;;;;0.41;100.00;98511.97;4233132;82;28575;-74
2021/01/19 19:01:36;;;;;;;25.92;12.07;;;;;;;0.47;100.00;98515.72;4169320;84;28589;-73
2021/01/19 19:07:43;;;;;;;;;;;;;;;0.43;100.00;98512.60;4191876;84;28551;-73
2021/01/19 19:13:45;;;;;;;22.40;11.83;;;;;;;0.49;100.00;98515.87;4179163;84;22096;-76
2021/01/19 19:19:47;;;;;;;27.42;12.37;;;;;;;0.55;100.00;98524.39;4181333;83;28632;-74
2021/01/19 19:25:51;;;;;;;26.40;12.37;;;;;;;0.42;100.00;98526.83;4187547;84;28578;-74
2021/01/19 19:31:55;;;;;;;24.18;11.12;;;;;;;0.39;100.00;98502.07;4189035;84;28657;-74
2021/01/19 19:38:01;;;;;;;21.50;10.38;;;;;;;0.38;100.00;98489.85;4176280;84;44485;-77
2021/01/19 19:44:06;;;;;;;24.47;12.03;;;;;;;0.57;100.00;98483.70;4195238;84;28609;-77
2021/01/19 19:50:12;;;;;;;23.20;12.18;;;;;;;0.52;100.00;98496.15;4154119;84;45044;-75
2021/01/19 19:56:15;;;;;;;23.90;10.65;;;;;;;0.52;100.00;98499.63;4188226;83;28548;-74
2021/01/19 20:02:17;;;;;;;26.42;12.15;;;;;;;0.80;100.00;98499.53;4277530;82;28605;-75
2021/01/19 20:08:20;;;;;;;24.05;10.90;;;;;;;0.83;100.00;98501.81;4267102;82;28671;-75
2021/01/19 20:14:24;;;;;;;21.50;10.55;;;;;;;0.98;100.00;98487.26;4202991;83;44511;-75
2021/01/19 20:20:29;;;;;;;22.30;10.68;;;;;;;0.96;100.00;98482.66;4181144;84;28558;-77
2021/01/19 20:26:32;;;;;;;23.60;10.38;;;;;;;0.94;100.00;98476.24;4178934;83;28582;-76
2021/01/19 20:32:36;;;;;;;20.60;9.18;;;;;;;1.13;100.00;98474.02;4177034;83;28601;-75
2021/01/19 20:38:39;;;;;;;20.35;9.03;;;;;;;1.04;100.00;98471.14;4179557;84;43935;-74
2021/01/19 20:44:42;;;;;;;19.40;8.95;;;;;;;1.06;100.00;98480.55;4183160;83;43997;-75
2021/01/19 20:50:45;;;;;;;20.43;9.23;;;;;;;1.09;100.00;98479.38;4184635;83;28600;-75
2021/01/19 20:56:47;;;;;;;20.68;9.58;;;;;;;1.06;100.00;98477.10;4178274;83;28701;-74
2021/01/19 21:02:51;;;;;;;24.12;9.55;;;;;;;0.94;100.00;98479.38;4122771;85;28611;-75
2021/01/19 21:08:54;;;;;;;19.67;9.23;;;;;;;1.13;100.00;98478.52;4126017;85;28638;-74
2021/01/19 21:14:57;;;;;;;22.75;10.23;;;;;;;1.09;100.00;98474.08;4204084;83;28797;-75
2021/01/19 21:21:01;;;;;;;20.02;8.85;;;;;;;1.15;100.00;98481.79;4196381;83;28553;-74
2021/01/19 21:27:05;;;;;;;24.35;9.70;;;;;;;1.18;100.00;98482.25;4206763;83;28620;-76
2021/01/19 21:33:07;;;;;;;20.92;9.28;;;;;;;1.20;100.00;98472.28;4214715;83;28620;-74
2021/01/19 21:39:11;;;;;;;16.27;7.33;;;;;;;1.28;100.00;98468.71;4173979;83;28594;-74
2021/01/19 21:45:17;;;;;;;13.90;6.62;;;;;;;1.24;100.00;98469.58;4191819;83;28539;-75
2021/01/19 21:51:19;;;;;;;14.58;5.62;;;;;;;1.27;100.00;98473.69;4186295;83;28632;-77
2021/01/19 21:57:21;;;;;;;13.10;5.33;;;;;;;1.35;100.00;98471.44;4194834;83;28582;-76
2021/01/19 22:03:24;;;;;;;11.55;4.80;;;;;;;1.35;100.00;98468.30;4216272;83;28583;-76
2021/01/19 22:09:27;;;;;;;11.00;4.87;;;;;;;1.38;100.00;98457.32;4177669;83;28663;-79
2021/01/19 22:15:29;;;;;;;13.93;5.97;;;;;;;1.47;100.00;98469.14;4183894;83;28630;-78
2021/01/19 22:21:32;;;;;;;13.22;5.40;;;;;;;1.57;100.00;98467.02;4194888;83;28666;-78
2021/01/19 22:27:36;;;;;;;14.58;5.30;;;;;;;1.43;100.00;98454.64;4181761;84;46849;-77
2021/01/19 22:33:39;;;;;;;12.40;6.33;;;;;;;1.45;100.00;98455.27;4180664;84;28661;-79
2021/01/19 22:39:41;;;;;;;13.60;5.90;;;;;;;1.26;100.00;98452.19;4167750;84;28691;-79
2021/01/19 22:45:44;;;;;;;15.32;6.12;;;;;;;1.17;100.00;98456.78;4167133;83;28616;-78
2021/01/19 22:51:46;;;;;;;11.33;5.03;;;;;;;1.16;100.00;98456.46;4198435;83;28620;-78
2021/01/19 22:57:48;;;;;;;13.43;6.12;;;;;;;1.37;100.00;98463.63;4128362;85;28562;-78
2021/01/19 23:03:50;;;;;;;13.53;5.40;;;;;;;1.20;100.00;98462.22;4165184;83;28651;-78
2021/01/19 23:09:52;;;;;;;11.53;5.67;;;;;;;1.08;100.00;98465.30;4171395;83;28647;-78
2021/01/19 23:15:55;;;;;;;12.55;5.97;;;;;;;1.09;100.00;98474.91;4177935;83;28562;-78
2021/01/19 23:21:58;;;;;;;10.95;5.25;;;;;;;1.02;100.00;98472.67;4188921;83;28572;-77
2021/01/19 23:28:01;;;;;;;15.65;6.78;;;;;;;1.19;100.00;98468.48;4189949;83;28591;-77
2021/01/19 23:34:03;;;;;;;15.13;7.03;;;;;;;0.98;100.00;98470.05;4234047;82;43929;-77
2021/01/19 23:40:07;;;;;;;14.35;7.08;;;;;;;1.06;100.00;98474.45;4237696;82;43905;-77
2021/01/19 23:46:09;;;;;;;14.20;6.85;;;;;;;1.13;100.00;98462.10;4248856;82;43984;-77
2021/01/19 23:52:12;;;;;;;13.30;6.47;;;;;;;1.21;100.00;98455.91;4219997;82;28554;-77
2021/01/19 23:58:14;;;;;;;12.58;7.20;;;;;;;1.25;100.00;98463.30;4259581;82;28593;-77
